ADDS METAR Data INFO
IDs: Format: Raw Decoded Include TAF

Data at: 0430 UTC 21 Nov 2017

KT82 210415Z AUTO 00000KT 10SM CLR 05/00 A3001 RMK AO2 T00540002
KT82 210355Z AUTO 00000KT 10SM CLR 06/00 A3000 RMK AO2 T00610004
KT82 210335Z AUTO 00000KT 10SM CLR 07/00 A3000 RMK AO2 T00650003
KT82 210315Z AUTO 00000KT 10SM CLR 06/00 A3001 RMK AO2 T00620001
KT82 210255Z AUTO 00000KT 10SM CLR 07/00 A3001 RMK AO2 T00670000
KT82 210235Z AUTO 00000KT 10SM CLR 07/00 A3001 RMK AO2 T00700002
KT82 210215Z AUTO 00000KT 10SM CLR 07/00 A3001 RMK AO2 T00670000
KT82 210155Z AUTO 00000KT 10SM CLR 06/00 A3002 RMK AO2 T00621005
KT82 210135Z AUTO 00000KT 10SM CLR 09/M01 A3001 RMK AO2 T00931011
KT82 210115Z AUTO 00000KT 10SM CLR 10/M01 A3002 RMK AO2 T01031015
KT82 210055Z AUTO 18004KT 10SM CLR 12/M02 A3002 RMK AO2 T01171016
KT82 210035Z AUTO 17003KT 10SM CLR 12/M02 A3001 RMK AO2 T01221017
KT82 210015Z AUTO 18003KT 10SM CLR 13/M02 A3002 RMK AO2 T01261020
KT82 202355Z AUTO 18004KT 10SM CLR 13/M02 A3001 RMK AO2 T01331020 10185 20133
KT82 202335Z AUTO 18004KT 10SM CLR 15/M02 A3001 RMK AO2 T01451021
KT82 202315Z AUTO 20005KT 10SM CLR 16/M02 A3002 RMK AO2 T01581023
KT82 202255Z AUTO 20008KT 10SM CLR 17/M02 A3001 RMK AO2 T01661025
KT82 202235Z AUTO 19010KT 10SM CLR 17/M02 A3001 RMK AO2 T01701025
KT82 202215Z AUTO 19011G14KT 10SM CLR 17/M02 A3001 RMK AO2 T01701025
KT82 202155Z AUTO 20011KT 10SM CLR 17/M02 A3001 RMK AO2 T01731024
KT82 202135Z AUTO 22010G15KT 10SM CLR 18/M03 A3002 RMK AO2 T01811026
KT82 202115Z AUTO 18010KT 10SM CLR 18/M02 A3002 RMK AO2 T01781024
KT82 202055Z AUTO 21014G18KT 10SM CLR 18/M02 A3003 RMK AO2 T01801025
KT82 202035Z AUTO 22009G15KT 10SM CLR 18/M02 A3004 RMK AO2 T01771020
KT82 202015Z AUTO 20011KT 10SM CLR 18/M02 A3004 RMK AO2 T01761018
KT82 201955Z AUTO 18010G20KT 10SM CLR 17/M02 A3005 RMK AO2 T01721019
KT82 201935Z AUTO 22013G16KT 10SM CLR 17/M02 A3006 RMK AO2 T01721017
KT82 201915Z AUTO 19011G16KT 10SM CLR 17/M02 A3007 RMK AO2 T01721021
KT82 201855Z AUTO 19013G17KT 10SM CLR 17/M02 A3009 RMK AO2 T01691022
KT82 201835Z AUTO 18012G16KT 10SM CLR 17/M02 A3011 RMK AO2 T01651017
KT82 201815Z AUTO 19014G17KT 10SM CLR 16/M02 A3013 RMK AO2 T01611017
KT82 201755Z AUTO 19010G15KT 10SM CLR 16/M01 A3014 RMK AO2 T01571012 10157 21003
KT82 201735Z AUTO 17008G15KT 10SM CLR 15/M01 A3016 RMK AO2 T01531011
KT82 201715Z AUTO 18010G15KT 10SM CLR 14/M01 A3017 RMK AO2 T01421013
KT82 201655Z AUTO 19009G15KT 10SM CLR 14/M01 A3018 RMK AO2 T01421013
KT82 201635Z AUTO 19010G15KT 10SM CLR 14/M02 A3019 RMK AO2 T01351022
KT82 201615Z AUTO 17008KT 10SM CLR 13/M02 A3020 RMK AO2 LTG DSNT SE T01311018
KT82 201555Z AUTO 16008KT 10SM CLR 12/M02 A3020 RMK AO2 T01231016
KT82 201535Z AUTO 17006KT 10SM CLR 11/01 A3021 RMK AO2 LTG DSNT SE T01050005
KT82 201515Z AUTO 00000KT 10SM CLR 07/01 A3021 RMK AO2 T00730008
KT82 201455Z AUTO 00000KT 10SM CLR 05/00 A3020 RMK AO2 T00520001
KT82 201435Z AUTO 00000KT 10SM CLR 04/00 A3020 RMK AO2 T00370003
KT82 201415Z AUTO 00000KT 10SM CLR 02/00 A3020 RMK AO2 T00201002
KT82 201355Z AUTO 00000KT 10SM CLR 01/M01 A3020 RMK AO2 T00081007
KT82 201335Z AUTO 00000KT 10SM CLR 00/M01 A3019 RMK AO2 T00021012
KT82 201315Z AUTO 00000KT 10SM CLR 00/M02 A3019 RMK AO2 T00001016
KT82 201255Z AUTO 00000KT 10SM CLR 00/M02 A3018 RMK AO2 T00011018
KT82 201235Z AUTO 00000KT 10SM CLR 00/M02 A3018 RMK AO2 T10021019
KT82 201215Z AUTO 32003KT 10SM CLR 00/M01 A3018 RMK AO2 T00001015
KT82 201155Z AUTO 32003KT 10SM CLR 00/M01 A3017 RMK AO2 T00001015 10028 21001
KT82 201135Z AUTO 00000KT 10SM CLR 00/M01 A3017 RMK AO2 T00041012
KT82 201115Z AUTO 00000KT 10SM CLR 01/M01 A3017 RMK AO2 T00051012
KT82 201055Z AUTO 00000KT 10SM CLR 00/M01 A3017 RMK AO2 T00021013
KT82 201035Z AUTO 00000KT 10SM CLR 01/M01 A3018 RMK AO2 T00051009
KT82 201015Z AUTO 00000KT 10SM CLR 01/M01 A3018 RMK AO2 T00051011
KT82 200955Z AUTO 00000KT 10SM CLR 01/M01 A3019 RMK AO2 T00101008
KT82 200935Z AUTO 00000KT 10SM CLR 01/M01 A3019 RMK AO2 T00141006
KT82 200915Z AUTO 00000KT 10SM CLR 02/M01 A3019 RMK AO2 T00151006
KT82 200855Z AUTO 00000KT 10SM CLR 01/M01 A3019 RMK AO2 T00131007
KT82 200835Z AUTO 00000KT 10SM CLR 01/M01 A3019 RMK AO2 T00141006
KT82 200815Z AUTO 00000KT 10SM CLR 02/M01 A3020 RMK AO2 T00151009
KT82 200755Z AUTO 00000KT 10SM CLR 02/M01 A3020 RMK AO2 T00211007
KT82 200735Z AUTO 00000KT 10SM CLR 02/00 A3021 RMK AO2 T00201005
KT82 200715Z AUTO 00000KT 10SM CLR 03/00 A3022 RMK AO2 T00261003
KT82 200655Z AUTO 00000KT 10SM CLR 03/00 A3021 RMK AO2 T00271002
KT82 200635Z AUTO 00000KT 10SM CLR 03/00 A3022 RMK AO2 T00251002
KT82 200615Z AUTO 00000KT 10SM CLR 03/00 A3022 RMK AO2 T00250000
KT82 200555Z AUTO 00000KT 10SM CLR 02/00 A3022 RMK AO2 T00211005 10111 20011 401500002
KT82 200535Z AUTO 30003KT 10SM CLR 02/M01 A3022 RMK AO2 T00211006
KT82 200515Z AUTO 00000KT 10SM CLR 02/M01 A3022 RMK AO2 T00151011
KT82 200455Z AUTO 00000KT 10SM CLR 02/M01 A3023 RMK AO2 T00181010
KT82 200435Z AUTO 32004KT 10SM CLR 01/M01 A3023 RMK AO2 T00141011
KT82 200415Z AUTO 30003KT 10SM CLR 02/M01 A3023 RMK AO2 T00221008
KT82 200355Z AUTO 00000KT 10SM CLR 02/00 A3024 RMK AO2 T00211005
KT82 200335Z AUTO 01003KT 10SM CLR 03/M01 A3024 RMK AO2 T00301006
KT82 200315Z AUTO 00000KT 10SM CLR 03/00 A3024 RMK AO2 T00341005
KT82 200255Z AUTO 32003KT 10SM CLR 04/00 A3024 RMK AO2 T00381003
KT82 200235Z AUTO 33003KT 10SM CLR 04/00 A3024 RMK AO2 T00431001
KT82 200215Z AUTO 00000KT 10SM CLR 05/00 A3024 RMK AO2 T00451002
KT82 200155Z AUTO 00000KT 10SM CLR 05/M01 A3024 RMK AO2 T00481006
KT82 200135Z AUTO 32003KT 10SM CLR 05/00 A3024 RMK AO2 T00541003
KT82 200115Z AUTO 31003KT 10SM CLR 05/00 A3024 RMK AO2 T00531003
KT82 200055Z AUTO 00000KT 10SM CLR 07/M01 A3024 RMK AO2 T00711011
KT82 200035Z AUTO 00000KT 5SM HZ CLR 08/M02 A3023 RMK AO2 T00821025
KT82 200015Z AUTO 11003KT 10SM CLR 11/M04 A3023 RMK AO2 T01081042
KT82 192355Z AUTO 09003KT 10SM CLR 11/M04 A3024 RMK AO2 T01111040 10150 20108
KT82 192335Z AUTO 00000KT 10SM CLR 12/M04 A3024 RMK AO2 T01241045
KT82 192315Z AUTO 00000KT 10SM CLR 13/M05 A3024 RMK AO2 T01321047
KT82 192255Z AUTO 00000KT 7SM CLR 14/M06 A3023 RMK AO2 T01401065
KT82 192235Z AUTO 00000KT 10SM CLR 14/M06 A3023 RMK AO2 T01441065
KT82 192215Z AUTO 00000KT 10SM CLR 15/M06 A3023 RMK AO2 T01471058
KT82 192155Z AUTO 06004KT 10SM CLR 15/M06 A3024 RMK AO2 T01451059
KT82 192135Z AUTO 00000KT 10SM CLR 15/M06 A3024 RMK AO2 T01461060
KT82 192115Z AUTO 00000KT 10SM CLR 15/M06 A3025 RMK AO2 T01481057
KT82 192055Z AUTO 03003KT 10SM CLR 14/M06 A3026 RMK AO2 T01431058
KT82 192035Z AUTO 07003KT 10SM CLR 15/M06 A3027 RMK AO2 T01461057
KT82 192015Z AUTO 11004KT 10SM CLR 15/M05 A3028 RMK AO2 T01491055
KT82 191955Z AUTO 04007KT 10SM CLR 15/M05 A3029 RMK AO2 T01471054
KT82 191935Z AUTO 26003KT 10SM CLR 14/M05 A3030 RMK AO2 T01351053
KT82 191915Z AUTO 00000KT 10SM CLR 13/M05 A3031 RMK AO2 T01331049
KT82 191855Z AUTO 13003KT 10SM CLR 14/M05 A3032 RMK AO2 T01371048
KT82 191835Z AUTO 13005KT 10SM CLR 14/M05 A3033 RMK AO2 T01351048
KT82 191815Z AUTO 04003KT 10SM CLR 13/M05 A3035 RMK AO2 T01301052
KT82 191755Z AUTO 09006KT 10SM CLR 13/M05 A3037 RMK AO2 T01301053 10132 20002
KT82 191735Z AUTO 02005KT 10SM CLR 12/M05 A3038 RMK AO2 T01231048
KT82 191715Z AUTO 06005KT 10SM CLR 13/M05 A3039 RMK AO2 T01271048
KT82 191655Z AUTO 06004KT 10SM CLR 13/M04 A3040 RMK AO2 T01261044
KT82 191635Z AUTO 07006KT 10SM CLR 12/M04 A3041 RMK AO2 T01201038